Flight Track Log - Related Links

Times and Time Zones

All times are in EDT time to prevent confusion due to time zone crossing. See the BOE521 flight status page for this flight to view local times or setup timezone preferences in your user account.

Time Position Orientation Groundspeed Altitude Reporting Facility
EDT Latitude Longitude Course Direction KTS MPH feet Rate Location/Type
Thu 04:42:00 PM 47.4914 -119.8281 293° West  Level FlightAware Approximate
Thu 04:42:13 PM 47.4681 -120.0480 293° West 438 504 16,000  Level FlightAware ADS-B
Thu 04:42:50 PM 47.5002 -120.1490 295° West 439 505 16,000  Level FlightAware ADS-B
Thu 04:43:26 PM 47.5300 -120.2420 295° West 413 475 16,000 86 Level FlightAware ADS-B
Thu 04:44:00 PM 47.5580 -120.3280 296° West 406 467 16,100  Climbing FlightAware ADS-B
Thu 04:44:11 PM 47.5666 -120.3550 295° West 439 505 16,000 -111 Descending FlightAware ADS-B
Thu 04:44:54 PM 47.5996 -120.4640 294° West 406 467 16,000  Level FlightAware ADS-B
Thu 04:45:24 PM 47.6236 -120.5420 295° West 417 480 16,000  Level FlightAware ADS-B
Thu 04:46:04 PM 47.6566 -120.6470 295° West 433 498 16,000  Level FlightAware ADS-B
Thu 04:46:35 PM 47.6825 -120.7300 295° West 433 498 16,000  Level FlightAware ADS-B
Thu 04:47:05 PM 47.7076 -120.8110 295° West 431 496 16,000 -100 Level FlightAware ADS-B
Thu 04:47:35 PM 47.7324 -120.8910 295° West 427 491 15,900 -800 Descending FlightAware ADS-B
Thu 04:48:05 PM 47.7564 -120.9690 295° West 403 464 15,200 -1,200 Descending FlightAware ADS-B
Thu 04:48:35 PM 47.7789 -121.0430 294° West 375 432 14,700 -1,200 Descending FlightAware ADS-B
Thu 04:49:05 PM 47.7999 -121.1110 295° West 361 415 14,000 -1,672 Descending FlightAware ADS-B
Thu 04:49:36 PM 47.8206 -121.1800 294° West 354 407 13,000 -1,967 Descending FlightAware ADS-B
Thu 04:50:06 PM 47.8409 -121.2460 295° West 350 403 12,000 -1,800 Descending FlightAware ADS-B
Thu 04:50:36 PM 47.8608 -121.3120 294° West 339 390 11,200 -1,770 Descending FlightAware ADS-B
Thu 04:51:07 PM 47.8804 -121.3760 295° West 339 390 10,200 -1,180 Descending FlightAware ADS-B
Thu 04:51:37 PM 47.8999 -121.4410 294° West 342 394 10,000 -235 Descending FlightAware ADS-B
Thu 04:51:58 PM 47.9135 -121.4860 294° West 339 390 10,000  Level FlightAware ADS-B
Thu 04:52:19 PM 47.9268 -121.5300 294° West 337 388 10,000  Level FlightAware ADS-B
Thu 04:52:35 PM 47.9371 -121.5640 294° West 336 387 10,000  Level FlightAware ADS-B
Thu 04:52:51 PM 47.9473 -121.5990 294° West 330 380 10,000  Level FlightAware ADS-B
Thu 04:53:08 PM 47.9573 -121.6320 294° West 303 349 10,000 -188 Level FlightAware ADS-B
Thu 04:53:23 PM 47.9655 -121.6590 294° West 278 320 9,900 -800 Descending FlightAware ADS-B
Thu 04:53:38 PM 47.9732 -121.6850 294° West 266 306 9,600 -1,655 Descending FlightAware ADS-B
Thu 04:53:52 PM 47.9798 -121.7080 293° West 261 300 9,100 -2,308 Descending FlightAware ADS-B
Thu 04:54:04 PM 47.9858 -121.7280 294° West 262 302 8,600 -1,920 Descending FlightAware ADS-B
Thu 04:54:17 PM 47.9923 -121.7500 294° West 268 308 8,300 -1,034 Descending FlightAware ADS-B
Thu 04:54:33 PM 48.0001 -121.7760 294° West 267 307 8,100 -692 Descending FlightAware ADS-B
Thu 04:54:43 PM 48.0052 -121.7930 294° West 267 307 8,000 -240 Descending FlightAware ADS-B
Thu 04:54:58 PM 48.0129 -121.8190 294° West 268 308 8,000  Level FlightAware ADS-B
Thu 04:55:14 PM 48.0206 -121.8450 294° West 269 310 8,000  Level FlightAware ADS-B
Thu 04:55:30 PM 48.0288 -121.8720 294° West 268 308 8,000  Level FlightAware ADS-B
Thu 04:55:45 PM 48.0364 -121.8980 294° West 267 307 8,000  Level FlightAware ADS-B
Thu 04:55:59 PM 48.0433 -121.9210 294° West 253 291 8,000 -400 Level FlightAware ADS-B
Thu 04:56:15 PM 48.0505 -121.9450 294° West 237 273 7,800 -968 Descending FlightAware ADS-B
Thu 04:56:30 PM 48.0571 -121.9680 293° West 227 261 7,500 -1,273 Descending FlightAware ADS-B
Thu 04:56:48 PM 48.0641 -121.9920 294° West 213 245 7,100 -1,286 Descending FlightAware ADS-B
Thu 04:56:58 PM 48.0688 -122.0050 298° West 211 243 6,900 -923 Descending FlightAware ADS-B
Thu 04:57:01 PM 48.0707 -122.0080 313° West 215 247 6,900 -1,347 Level FlightAware ADS-B
Thu 04:57:47 PM 48.1130 -122.0410 332° Northwest 227 261 5,800 -1,455 Descending FlightAware ADS-B
Thu 04:58:07 PM 48.1320 -122.0530 337° Northwest 226 260 5,300 -1,200 Descending FlightAware ADS-B
Thu 04:58:27 PM 48.1510 -122.0660 335° Northwest 228 262 5,000 -474 Descending FlightAware ADS-B
Thu 04:58:45 PM 48.1680 -122.0780 335° Northwest 226 260 5,000  Level FlightAware ADS-B
Thu 04:58:53 PM 48.1750 -122.0840 330° Northwest 221 254 5,000  Level FlightAware ADS-B
Thu 04:59:03 PM 48.1820 -122.0950 314° West 209 241 5,000  Level FlightAware ADS-B
Thu 04:59:11 PM 48.1850 -122.1050 294° West 201 231 5,000  Level FlightAware ADS-B
Thu 04:59:19 PM 48.1860 -122.1160 278° West 198 228 5,000  Level FlightAware ADS-B
Thu 04:59:31 PM 48.1870 -122.1320 275° West 198 228 5,000  Level FlightAware ADS-B
Thu 04:59:55 PM 48.1900 -122.1650 278° West 192 221 5,000  Level FlightAware ADS-B
Thu 05:00:16 PM 48.1930 -122.1910 280° West 191 220 5,000 -300 Level FlightAware ADS-B
Thu 05:00:35 PM 48.1950 -122.2160 277° West 188 216 4,800 -811 Descending FlightAware ADS-B
Thu 05:00:53 PM 48.1980 -122.2400 281° West 184 212 4,500 -1,227 Descending FlightAware ADS-B
Thu 05:01:19 PM 48.2020 -122.2720 281° West 183 211 3,900 -1,277 Descending FlightAware ADS-B
Thu 05:01:40 PM 48.2040 -122.2970 277° West 181 208 3,500 -1,241 Descending FlightAware ADS-B
Thu 05:01:48 PM 48.2050 -122.3070 279° West 177 204 3,300 -909 Descending FlightAware ADS-B
Thu 05:02:13 PM 48.1950 -122.3300 237° Southwest 160 184 3,000 -409 Descending FlightAware ADS-B
Thu 05:02:32 PM 48.1840 -122.3400 211° Southwest 157 181 3,000  Level FlightAware ADS-B
Thu 05:02:57 PM 48.1670 -122.3550 210° Southwest 156 180 3,000  Level FlightAware ADS-B
Thu 05:03:09 PM 48.1600 -122.3620 214° Southwest 156 180 3,000  Level FlightAware ADS-B
Thu 05:03:13 PM 48.1570 -122.3630 193° South 155 178 3,000  Level FlightAware ADS-B
Thu 05:03:37 PM 48.1410 -122.3530 157° South 169 194 3,000  Level FlightAware ADS-B
Thu 05:03:45 PM 48.1370 -122.3460 131° Southeast 174 200 3,000  Level FlightAware ADS-B
Thu 05:04:05 PM 48.1290 -122.3280 124° Southeast 179 206 3,000  Level FlightAware ADS-B
Thu 05:04:19 PM 48.1220 -122.3110 122° Southeast 167 192 3,000  Level FlightAware ADS-B
Thu 05:04:29 PM 48.1180 -122.3040 131° Southeast 161 185 3,000  Level FlightAware ADS-B
Thu 05:04:49 PM 48.1060 -122.2910 144° Southeast 155 178 3,000  Level FlightAware ADS-B
Thu 05:04:56 PM 48.1020 -122.2900 171° South 154 177 3,000  Level FlightAware ADS-B
Thu 05:05:15 PM 48.0870 -122.2890 177° South 151 174 3,000  Level FlightAware ADS-B
Thu 05:05:37 PM 48.0720 -122.2890 180° South 151 174 3,000  Level FlightAware ADS-B
Thu 05:05:57 PM 48.0580 -122.2890 180° South 147 169 3,000 -143 Level FlightAware ADS-B
Thu 05:06:19 PM 48.0440 -122.2890 180° South 138 159 2,900 -450 Descending FlightAware ADS-B
Thu 05:06:37 PM 48.0330 -122.2880 177° South 130 150 2,700 -682 Descending FlightAware ADS-B
Thu 05:07:03 PM 48.0170 -122.2880 180° South 129 148 2,400 -652 Descending FlightAware ADS-B
Thu 05:07:23 PM 48.0050 -122.2880 180° South 133 153 2,200 -632 Descending FlightAware ADS-B
Thu 05:07:41 PM 47.9930 -122.2880 180° South 136 157 2,000 -600 Descending FlightAware ADS-B
Thu 05:08:03 PM 47.9810 -122.2870 177° South 136 157 1,800 -652 Descending FlightAware ADS-B
Thu 05:08:27 PM 47.9650 -122.2870 180° South 136 157 1,500 -857 Descending FlightAware ADS-B
Thu 05:08:59 PM 47.9440 -122.2860 178° South 137 158 1,000 -750 Descending FlightAware ADS-B
Thu 05:09:23 PM 47.9300 -122.2860 180° South 136 157 800 -310 Descending FlightAware ADS-B
Thu 05:09:57 PM 47.9100 -122.2850 178° South 137 158 700 -176 Descending FlightAware ADS-B

Login

Don't have an account? Register now (free) for customized features, flight alerts, and more!